Northeast Philadelphia Airport Philadelphia US
ICAO: KPNE
IATA: PNE
Category: Medium
Scheduled Services: No

Elevation: 120 ft
TransAlt. 18000 ft.

Airport Communications:
PHILADELPHIA APP/DEP:123.8
ATIS:121.15
CLNC DEL:127.25
CTAF:126.9
GND:121.7
WILLIAMSPORT RDO:122.2
TWR:126.9
UNICOM:122.95

KPNE Zoom In..

If you have problems with the map follow the link
https://www.worldairports.se/pages/airport.php?
ICAO=KPNE

Runways:

(A) RW 06 length 7000 ft width 150 ft
---- / hdg 60

(B) RW 15 length 5000 ft width 150 ft
---- / hdg 153

(C) RW 24 length 7000 ft width 150 ft
ILS 111.10 / hdg 240

(D) RW 33 length 5000 ft width 150 ft
---- / hdg 333

Location; KPNE
Day. 08 / Time. 04.54 Zulu
* Altimeter: 30.52
* Temperature: -03° c. -26.6°f.
* Wind from: 060° Speed 03 kn.
Dewpoint: -09° c.
Visibility: 10 Statute Miles.
Clouds: Clear (automated report).

KPNE 080454Z AUTO 06003KT 10SM CLR M03/M09 A3052 RMK AO2 SLP335 T10331089 400671033


Wind From 060°
Speed 03 kn.

 
 
jpsmedia worldairports.se 2019   terms of use